createdAt,value
2023-05-05T00:01:35.133Z,10.09
2023-05-05T00:04:01.540Z,10.10
2023-05-05T00:06:27.956Z,10.10
2023-05-05T00:08:54.353Z,10.09
2023-05-05T00:11:20.704Z,10.10
2023-05-05T00:13:47.053Z,10.07
2023-05-05T00:16:13.399Z,10.07
2023-05-05T00:18:39.743Z,10.10
2023-05-05T00:21:06.161Z,10.10
2023-05-05T00:23:32.541Z,10.09
2023-05-05T00:25:58.907Z,10.09
2023-05-05T00:28:25.443Z,10.09
2023-05-05T00:30:51.810Z,10.10
2023-05-05T00:33:18.382Z,10.09
2023-05-05T00:35:44.734Z,10.09
2023-05-05T00:38:11.280Z,10.07
2023-05-05T00:40:37.627Z,10.07
2023-05-05T00:43:04.014Z,10.07
2023-05-05T00:45:30.375Z,10.09
2023-05-05T00:47:56.739Z,10.10
2023-05-05T00:50:23.172Z,10.06
2023-05-05T00:52:49.542Z,10.06
2023-05-05T00:55:15.904Z,10.06
2023-05-05T00:57:42.254Z,10.07
2023-05-05T01:00:08.882Z,10.07
2023-05-05T01:02:35.434Z,10.06
2023-05-05T01:05:01.981Z,10.07
2023-05-05T01:07:28.365Z,10.07
2023-05-05T01:10:07.221Z,10.07
2023-05-05T01:12:41.104Z,10.09
2023-05-05T01:15:07.516Z,10.09
2023-05-05T01:17:33.893Z,10.09
2023-05-05T01:20:00.412Z,10.07
2023-05-05T01:22:26.788Z,10.10
2023-05-05T01:24:53.175Z,10.04
2023-05-05T01:27:19.525Z,10.07
2023-05-05T01:29:45.894Z,10.06
2023-05-05T01:32:12.244Z,10.06
2023-05-05T01:34:38.604Z,10.09
2023-05-05T01:37:04.972Z,10.04
2023-05-05T01:39:31.345Z,10.09
2023-05-05T01:41:57.689Z,10.07
2023-05-05T01:44:24.021Z,10.06
2023-05-05T01:46:50.345Z,10.07
2023-05-05T01:49:16.669Z,10.06
2023-05-05T01:51:43.017Z,10.04
2023-05-05T01:54:09.372Z,10.04
2023-05-05T01:56:35.901Z,10.09
2023-05-05T01:59:02.273Z,10.06
2023-05-05T02:01:28.895Z,10.06
2023-05-05T02:03:55.259Z,10.04
2023-05-05T02:06:21.587Z,10.04
2023-05-05T02:08:48.156Z,10.06
2023-05-05T02:11:14.508Z,10.06
2023-05-05T02:13:40.888Z,10.04
2023-05-05T02:16:07.345Z,10.06
2023-05-05T02:18:33.748Z,10.04
2023-05-05T02:21:00.084Z,10.06
2023-05-05T02:23:26.684Z,10.06
2023-05-05T02:25:53.047Z,10.04
2023-05-05T02:28:19.387Z,10.04
2023-05-05T02:30:45.703Z,10.03
2023-05-05T02:33:12.079Z,10.06
2023-05-05T02:35:38.653Z,10.06
2023-05-05T02:38:05.012Z,10.06
2023-05-05T02:40:31.342Z,10.06
2023-05-05T02:42:57.715Z,10.04
2023-05-05T02:45:26.544Z,10.04
2023-05-05T02:47:52.949Z,10.02
2023-05-05T02:50:19.507Z,10.06
2023-05-05T02:52:46.086Z,10.07
2023-05-05T02:55:12.443Z,10.04
2023-05-05T02:57:38.821Z,10.04
2023-05-05T03:00:05.295Z,10.04
2023-05-05T03:02:31.951Z,10.03
2023-05-05T03:04:58.415Z,10.06
2023-05-05T03:07:24.998Z,10.02
2023-05-05T03:09:51.368Z,10.06
2023-05-05T03:12:17.963Z,10.04
2023-05-05T03:14:44.320Z,10.04
2023-05-05T03:17:10.691Z,10.03
2023-05-05T03:19:37.042Z,10.06
2023-05-05T03:22:03.385Z,10.03
2023-05-05T03:24:29.966Z,10.02
2023-05-05T03:26:56.325Z,10.02
2023-05-05T03:29:22.675Z,10.03
2023-05-05T03:31:49.062Z,10.03
2023-05-05T03:34:15.428Z,10.04
2023-05-05T03:36:41.824Z,10.04
2023-05-05T03:39:08.188Z,10.03
2023-05-05T03:41:34.520Z,10.04
2023-05-05T03:44:00.861Z,10.06
2023-05-05T03:46:27.776Z,10.02
2023-05-05T03:48:54.119Z,10.03
2023-05-05T03:51:20.484Z,10.04
2023-05-05T03:53:46.816Z,10.04
2023-05-05T03:56:13.166Z,10.03
2023-05-05T03:58:39.737Z,10.03
2023-05-05T04:01:06.306Z,10.02
2023-05-05T04:03:32.752Z,10.04
2023-05-05T04:05:59.181Z,10.02
2023-05-05T04:08:25.530Z,10.06
2023-05-05T04:10:51.894Z,10.02
2023-05-05T04:13:18.329Z,10.03
2023-05-05T04:15:44.681Z,10.06
2023-05-05T04:18:11.104Z,10.03
2023-05-05T04:20:37.757Z,10.03
2023-05-05T04:23:04.148Z,10.03
2023-05-05T04:25:30.733Z,10.02
2023-05-05T04:27:57.086Z,10.04
2023-05-05T04:30:23.446Z,10.04
2023-05-05T04:32:49.848Z,10.03
2023-05-05T04:35:16.251Z,10.03
2023-05-05T04:37:42.641Z,10.02
2023-05-05T04:40:09.285Z,10.04
2023-05-05T04:42:35.899Z,10.04
2023-05-05T04:45:02.239Z,10.03
2023-05-05T04:47:28.602Z,10.03
2023-05-05T04:49:54.952Z,10.02
2023-05-05T04:52:21.274Z,10.03
2023-05-05T04:54:47.624Z,10.00
2023-05-05T04:57:13.987Z,10.03
2023-05-05T04:59:40.687Z,10.06
2023-05-05T05:02:07.075Z,10.03
2023-05-05T05:04:33.429Z,10.02
2023-05-05T05:06:59.781Z,10.03
2023-05-05T05:09:26.144Z,10.04
2023-05-05T05:11:52.491Z,10.07
2023-05-05T05:14:18.855Z,10.06
2023-05-05T05:16:45.247Z,10.06
2023-05-05T05:19:11.629Z,10.02
2023-05-05T05:21:38.039Z,10.03
2023-05-05T05:24:04.378Z,10.03
2023-05-05T05:26:31.220Z,10.04
2023-05-05T05:28:57.576Z,10.04
2023-05-05T05:31:23.929Z,10.03
2023-05-05T05:33:50.288Z,10.03
2023-05-05T05:36:16.635Z,10.02
2023-05-05T05:38:42.997Z,10.03
2023-05-05T05:41:10.574Z,10.03
2023-05-05T05:43:36.933Z,10.03
2023-05-05T05:46:03.339Z,10.04
2023-05-05T05:48:29.733Z,10.06
2023-05-05T05:50:56.572Z,10.03
2023-05-05T05:53:22.918Z,10.06
2023-05-05T05:55:49.952Z,10.03
2023-05-05T05:58:16.295Z,10.06
2023-05-05T06:00:42.650Z,10.03
2023-05-05T06:03:09.118Z,10.06
2023-05-05T06:05:35.608Z,10.03
2023-05-05T06:08:01.982Z,10.03
2023-05-05T06:10:28.680Z,10.06
2023-05-05T06:12:55.163Z,10.03
2023-05-05T06:15:21.565Z,10.03
2023-05-05T06:17:48.162Z,10.03
2023-05-05T06:20:14.540Z,10.02
2023-05-05T06:22:40.882Z,10.03
2023-05-05T06:25:10.617Z,10.04
2023-05-05T06:27:36.967Z,10.04
2023-05-05T06:30:03.350Z,10.03
2023-05-05T06:32:29.733Z,10.03
2023-05-05T06:34:56.132Z,10.03
2023-05-05T06:37:22.493Z,10.04
2023-05-05T06:39:48.859Z,10.04
2023-05-05T06:42:15.206Z,10.03
2023-05-05T06:44:41.540Z,10.04
2023-05-05T06:47:08.057Z,10.03
2023-05-05T06:49:34.432Z,10.03
2023-05-05T06:52:00.773Z,10.06
2023-05-05T06:54:27.105Z,10.06
2023-05-05T06:56:53.460Z,10.03
2023-05-05T06:59:19.839Z,10.04
2023-05-05T07:01:46.202Z,10.04
2023-05-05T07:04:12.641Z,10.04
2023-05-05T07:06:39.092Z,10.04
2023-05-05T07:09:05.664Z,10.04
2023-05-05T07:11:32.020Z,10.06
2023-05-05T07:13:58.372Z,10.04
2023-05-05T07:16:24.759Z,10.06
2023-05-05T07:18:51.139Z,10.06
2023-05-05T07:21:17.490Z,10.06
2023-05-05T07:23:43.816Z,10.06
2023-05-05T07:26:10.161Z,10.07
2023-05-05T07:28:36.528Z,10.04
2023-05-05T07:31:03.295Z,10.07
2023-05-05T07:33:29.662Z,10.06
2023-05-05T07:35:56.249Z,10.09
2023-05-05T07:38:22.597Z,10.07
2023-05-05T07:40:51.744Z,10.07
2023-05-05T07:43:19.332Z,10.09
2023-05-05T07:45:45.725Z,10.10
2023-05-05T07:48:12.135Z,10.07
2023-05-05T07:50:39.703Z,10.07
2023-05-05T07:53:14.654Z,10.09
2023-05-05T07:55:41.537Z,10.07
2023-05-05T07:58:08.504Z,10.09
2023-05-05T08:00:34.913Z,10.09
2023-05-05T08:03:01.694Z,10.07
2023-05-05T08:05:28.142Z,10.09
2023-05-05T08:07:54.728Z,10.09
2023-05-05T08:10:21.085Z,10.04
2023-05-05T08:12:47.764Z,10.10
2023-05-05T08:15:14.161Z,10.09
2023-05-05T08:17:40.576Z,10.10
2023-05-05T08:20:06.971Z,10.10
2023-05-05T08:22:33.319Z,10.09
2023-05-05T08:24:59.682Z,10.09
2023-05-05T08:27:26.041Z,10.10
2023-05-05T08:29:52.887Z,10.10
2023-05-05T08:32:19.251Z,10.13
2023-05-05T08:34:45.611Z,10.11
2023-05-05T08:37:12.009Z,10.13
2023-05-05T08:39:38.362Z,10.10
2023-05-05T08:42:05.647Z,10.11
2023-05-05T08:44:32.024Z,10.10
2023-05-05T08:46:58.483Z,10.10
2023-05-05T08:49:24.907Z,10.11
2023-05-05T08:51:51.256Z,10.10
2023-05-05T08:54:17.603Z,10.11
2023-05-05T08:56:43.958Z,10.11
2023-05-05T08:59:10.312Z,10.11
2023-05-05T09:01:37.872Z,10.13
2023-05-05T09:04:04.263Z,10.13
2023-05-05T09:06:30.637Z,10.11
2023-05-05T09:08:59.512Z,10.13
2023-05-05T09:11:26.020Z,10.13
2023-05-05T09:13:52.649Z,10.13
2023-05-05T09:16:19.661Z,10.13
2023-05-05T09:18:46.055Z,10.11
2023-05-05T09:21:12.410Z,10.13
2023-05-05T09:23:38.743Z,10.14
2023-05-05T09:26:06.624Z,10.14
2023-05-05T09:28:32.990Z,10.17
2023-05-05T09:31:00.176Z,10.17
2023-05-05T09:33:26.531Z,10.16
2023-05-05T09:35:52.926Z,10.17
2023-05-05T09:38:19.292Z,10.16
2023-05-05T09:40:46.144Z,10.18
2023-05-05T09:43:12.502Z,10.16
2023-05-05T09:45:38.851Z,10.17
2023-05-05T09:48:05.212Z,10.18
2023-05-05T09:50:31.605Z,10.18
2023-05-05T09:52:57.957Z,10.18
2023-05-05T09:55:24.318Z,10.17
2023-05-05T09:57:50.689Z,10.20
2023-05-05T10:00:17.044Z,10.20
2023-05-05T10:02:43.510Z,10.20
2023-05-05T10:05:10.172Z,10.20
2023-05-05T10:07:36.535Z,10.20
2023-05-05T10:10:02.881Z,10.23
2023-05-05T10:12:29.202Z,10.21
2023-05-05T10:14:55.545Z,10.23
2023-05-05T10:17:21.913Z,10.23
2023-05-05T10:19:48.269Z,10.23
2023-05-05T10:22:14.644Z,10.23
2023-05-05T10:24:41.007Z,10.21
2023-05-05T10:27:07.385Z,10.24
2023-05-05T10:29:33.724Z,10.24
2023-05-05T10:32:00.147Z,10.24
2023-05-05T10:34:26.668Z,10.23
2023-05-05T10:36:53.074Z,10.24
2023-05-05T10:39:19.428Z,10.24
2023-05-05T10:41:45.808Z,10.24
2023-05-05T10:44:12.300Z,10.25
2023-05-05T10:46:38.921Z,10.27
2023-05-05T10:49:05.296Z,10.23
2023-05-05T10:51:39.998Z,10.24
2023-05-05T10:54:07.471Z,10.21
2023-05-05T10:56:33.862Z,10.24
2023-05-05T10:59:00.955Z,10.23
2023-05-05T11:01:27.483Z,10.24
2023-05-05T11:03:54.009Z,10.24
2023-05-05T11:06:20.404Z,10.25
2023-05-05T11:08:46.766Z,10.23
2023-05-05T11:11:13.151Z,10.27
2023-05-05T11:13:39.526Z,10.25
2023-05-05T11:16:05.929Z,10.25
2023-05-05T11:18:32.322Z,10.24
2023-05-05T11:20:58.902Z,10.25
2023-05-05T11:23:25.237Z,10.25
2023-05-05T11:25:51.582Z,10.25
2023-05-05T11:28:17.947Z,10.24
2023-05-05T11:30:44.318Z,10.27
2023-05-05T11:33:10.693Z,10.27
2023-05-05T11:35:37.058Z,10.25
2023-05-05T11:38:03.404Z,10.27
2023-05-05T11:40:29.751Z,10.25
2023-05-05T11:42:56.100Z,10.25
2023-05-05T11:45:22.433Z,10.27
2023-05-05T11:47:48.860Z,10.25
2023-05-05T11:50:15.242Z,10.27
2023-05-05T11:52:41.836Z,10.27
2023-05-05T11:55:08.444Z,10.25
2023-05-05T11:57:34.822Z,10.27
2023-05-05T12:00:01.251Z,10.27
2023-05-05T12:02:27.727Z,10.25
2023-05-05T12:04:54.255Z,10.27
2023-05-05T12:07:20.656Z,10.27
2023-05-05T12:09:47.054Z,10.24
2023-05-05T12:12:13.415Z,10.25
2023-05-05T12:14:40.003Z,10.27
2023-05-05T12:17:06.363Z,10.24
2023-05-05T12:19:32.739Z,10.27
2023-05-05T12:21:59.084Z,10.29
2023-05-05T12:24:25.407Z,10.27
2023-05-05T12:26:51.805Z,10.29
2023-05-05T12:29:18.206Z,10.29
2023-05-05T12:31:44.583Z,10.27
2023-05-05T12:34:10.988Z,10.27
2023-05-05T12:36:37.356Z,10.30
2023-05-05T12:39:03.722Z,10.30
2023-05-05T12:41:30.097Z,10.27
2023-05-05T12:43:56.471Z,10.30
2023-05-05T12:46:22.878Z,10.30
2023-05-05T12:48:49.267Z,10.29
2023-05-05T12:51:15.632Z,10.30
2023-05-05T12:53:41.979Z,10.31
2023-05-05T12:56:08.352Z,10.30
2023-05-05T12:58:34.719Z,10.30
2023-05-05T13:01:01.132Z,10.31
2023-05-05T13:03:27.679Z,10.37
2023-05-05T13:05:54.124Z,10.38
2023-05-05T13:08:20.466Z,10.37
2023-05-05T13:10:46.810Z,10.38
2023-05-05T13:13:13.197Z,10.41
2023-05-05T13:15:39.669Z,10.40
2023-05-05T13:18:06.473Z,10.42
2023-05-05T13:20:32.894Z,10.41
2023-05-05T13:22:59.258Z,10.40
2023-05-05T13:25:25.620Z,10.41
2023-05-05T13:27:51.949Z,10.40
2023-05-05T13:30:18.320Z,10.42
2023-05-05T13:32:44.706Z,10.45
2023-05-05T13:35:12.223Z,10.44
2023-05-05T13:37:40.308Z,10.45
2023-05-05T13:40:06.959Z,10.47
2023-05-05T13:42:33.330Z,10.47
2023-05-05T13:44:59.659Z,10.47
2023-05-05T13:47:26.071Z,10.44
2023-05-05T13:49:52.430Z,10.45
2023-05-05T13:52:18.800Z,10.47
2023-05-05T13:54:45.134Z,10.45
2023-05-05T13:57:11.697Z,10.44
2023-05-05T13:59:38.029Z,10.44
2023-05-05T14:02:04.345Z,10.45
2023-05-05T14:04:30.823Z,10.47
2023-05-05T14:06:57.248Z,10.47
2023-05-05T14:09:23.588Z,10.47
2023-05-05T14:11:49.924Z,10.47
2023-05-05T14:14:16.278Z,10.48
2023-05-05T14:16:42.724Z,10.45
2023-05-05T14:19:09.106Z,10.45
2023-05-05T14:21:35.664Z,10.45
2023-05-05T14:24:02.010Z,10.47
2023-05-05T14:26:28.383Z,10.48
2023-05-05T14:28:54.747Z,10.44
2023-05-05T14:31:21.170Z,10.47
2023-05-05T14:33:47.587Z,10.45
2023-05-05T14:36:13.942Z,10.44
2023-05-05T14:38:40.610Z,10.44
2023-05-05T14:41:07.003Z,10.47
2023-05-05T14:43:33.395Z,10.41
2023-05-05T14:45:59.847Z,10.44
2023-05-05T14:48:26.216Z,10.45
2023-05-05T14:50:52.577Z,10.44
2023-05-05T14:53:19.080Z,10.44
2023-05-05T14:55:45.744Z,10.42
2023-05-05T14:58:12.116Z,10.44
2023-05-05T15:00:38.477Z,10.45
2023-05-05T15:03:04.887Z,10.45
2023-05-05T15:05:31.293Z,10.42
2023-05-05T15:07:57.639Z,10.42
2023-05-05T15:10:24.005Z,10.45
2023-05-05T15:12:50.656Z,10.47
2023-05-05T15:15:17.026Z,10.47
2023-05-05T15:17:43.469Z,10.47
2023-05-05T15:20:09.866Z,10.45
2023-05-05T15:22:36.214Z,10.47
2023-05-05T15:25:02.596Z,10.45
2023-05-05T15:27:28.973Z,10.47
2023-05-05T15:29:55.559Z,10.47
2023-05-05T15:32:22.056Z,10.45
2023-05-05T15:34:50.375Z,10.45
2023-05-05T15:37:17.048Z,10.45
2023-05-05T15:39:43.391Z,10.44
2023-05-05T15:42:09.728Z,10.45
2023-05-05T15:44:36.074Z,10.42
2023-05-05T15:47:02.761Z,10.40
2023-05-05T15:49:29.143Z,10.38
2023-05-05T15:51:55.514Z,10.41
2023-05-05T15:54:21.857Z,10.40
2023-05-05T15:56:48.202Z,10.38
2023-05-05T15:59:14.537Z,10.40
2023-05-05T16:01:40.917Z,10.37
2023-05-05T16:04:07.461Z,10.38
2023-05-05T16:06:33.832Z,10.38
2023-05-05T16:09:00.636Z,10.37
2023-05-05T16:11:27.039Z,10.41
2023-05-05T16:13:53.406Z,10.37
2023-05-05T16:16:19.806Z,10.38
2023-05-05T16:18:46.150Z,10.38
2023-05-05T16:21:12.489Z,10.40
2023-05-05T16:23:38.848Z,10.37
2023-05-05T16:26:05.444Z,10.37
2023-05-05T16:28:31.787Z,10.38
2023-05-05T16:30:58.124Z,10.41
2023-05-05T16:33:24.455Z,10.37
2023-05-05T16:35:50.814Z,10.36
2023-05-05T16:38:17.155Z,10.40
2023-05-05T16:40:43.517Z,10.36
2023-05-05T16:43:09.869Z,10.37
2023-05-05T16:45:36.206Z,10.38
2023-05-05T16:48:02.581Z,10.40
2023-05-05T16:50:29.220Z,10.40
2023-05-05T16:52:55.813Z,10.42
2023-05-05T16:55:22.187Z,10.41
2023-05-05T16:57:48.537Z,10.44
2023-05-05T17:00:14.902Z,10.45
2023-05-05T17:02:41.302Z,10.47
2023-05-05T17:05:07.997Z,10.47
2023-05-05T17:07:34.723Z,10.51
2023-05-05T17:10:01.045Z,10.50
2023-05-05T17:12:27.374Z,10.50
2023-05-05T17:14:53.728Z,10.50
2023-05-05T17:17:20.125Z,10.51
2023-05-05T17:19:46.462Z,10.47
2023-05-05T17:22:12.812Z,10.50
2023-05-05T17:24:39.393Z,10.51
2023-05-05T17:27:05.732Z,10.51
2023-05-05T17:29:32.088Z,10.48
2023-05-05T17:31:58.490Z,10.51
2023-05-05T17:34:24.837Z,10.47
2023-05-05T17:36:51.200Z,10.48
2023-05-05T17:39:17.534Z,10.48
2023-05-05T17:41:44.089Z,10.48
2023-05-05T17:44:10.454Z,10.45
2023-05-05T17:46:36.854Z,10.45
2023-05-05T17:49:03.269Z,10.47
2023-05-05T17:51:29.636Z,10.50
2023-05-05T17:53:55.969Z,10.44
2023-05-05T17:56:22.318Z,10.47
2023-05-05T17:58:48.884Z,10.45
2023-05-05T18:01:15.255Z,10.44
2023-05-05T18:03:41.635Z,10.44
2023-05-05T18:06:08.233Z,10.48
2023-05-05T18:08:34.590Z,10.47
2023-05-05T18:11:00.945Z,10.47
2023-05-05T18:13:27.284Z,10.44
2023-05-05T18:15:53.676Z,10.47
2023-05-05T18:18:20.107Z,10.42
2023-05-05T18:20:46.506Z,10.45
2023-05-05T18:23:12.916Z,10.44
2023-05-05T18:25:39.267Z,10.44
2023-05-05T18:28:05.625Z,10.42
2023-05-05T18:30:31.983Z,10.42
2023-05-05T18:32:58.334Z,10.42
2023-05-05T18:35:24.628Z,10.42
2023-05-05T18:37:50.997Z,10.41
2023-05-05T18:40:17.344Z,10.42
2023-05-05T18:42:43.700Z,10.40
2023-05-05T18:45:10.212Z,10.42
2023-05-05T18:47:37.057Z,10.42
2023-05-05T18:50:03.433Z,10.41
2023-05-05T18:52:29.771Z,10.41
2023-05-05T18:54:56.118Z,10.41
2023-05-05T18:57:23.370Z,10.40
2023-05-05T18:59:49.726Z,10.40
2023-05-05T19:02:16.089Z,10.38
2023-05-05T19:04:42.508Z,10.38
2023-05-05T19:07:08.897Z,10.38
2023-05-05T19:09:35.249Z,10.41
2023-05-05T19:12:01.606Z,10.37
2023-05-05T19:14:27.988Z,10.38
2023-05-05T19:16:54.432Z,10.40
2023-05-05T19:19:20.855Z,10.40
2023-05-05T19:21:47.208Z,10.36
2023-05-05T19:24:13.537Z,10.40
2023-05-05T19:26:39.983Z,10.36
2023-05-05T19:29:06.600Z,10.38
2023-05-05T19:31:32.982Z,10.40
2023-05-05T19:33:59.398Z,10.36
2023-05-05T19:36:25.752Z,10.38
2023-05-05T19:38:52.320Z,10.36
2023-05-05T19:41:18.687Z,10.36
2023-05-05T19:43:45.396Z,10.37
2023-05-05T19:46:11.804Z,10.38
2023-05-05T19:48:38.180Z,10.38
2023-05-05T19:51:04.532Z,10.38
2023-05-05T19:53:31.090Z,10.36
2023-05-05T19:55:57.466Z,10.36
2023-05-05T19:58:23.806Z,10.36
2023-05-05T20:00:50.154Z,10.37
2023-05-05T20:03:16.581Z,10.36
2023-05-05T20:05:43.024Z,10.38
2023-05-05T20:08:09.382Z,10.37
2023-05-05T20:10:35.951Z,10.34
2023-05-05T20:13:02.345Z,10.36
2023-05-05T20:15:28.909Z,10.36
2023-05-05T20:17:55.963Z,10.34
2023-05-05T20:20:22.839Z,10.34
2023-05-05T20:22:49.451Z,10.36
2023-05-05T20:25:15.858Z,10.36
2023-05-05T20:27:42.239Z,10.34
2023-05-05T20:30:08.853Z,10.34
2023-05-05T20:32:35.457Z,10.37
2023-05-05T20:35:01.807Z,10.37
2023-05-05T20:37:28.150Z,10.36
2023-05-05T20:39:54.507Z,10.36
2023-05-05T20:42:20.869Z,10.33
2023-05-05T20:44:47.222Z,10.34
2023-05-05T20:47:13.628Z,10.34
2023-05-05T20:49:40.037Z,10.36
2023-05-05T20:52:06.371Z,10.37
2023-05-05T20:54:32.754Z,10.34
2023-05-05T20:56:59.161Z,10.36
2023-05-05T20:59:25.510Z,10.34
2023-05-05T21:01:51.917Z,10.36
2023-05-05T21:04:18.313Z,10.34
2023-05-05T21:06:44.665Z,10.34
2023-05-05T21:09:11.126Z,10.31
2023-05-05T21:11:37.472Z,10.36
2023-05-05T21:14:03.832Z,10.34
2023-05-05T21:16:30.230Z,10.34
2023-05-05T21:18:56.599Z,10.33
2023-05-05T21:21:23.157Z,10.34
2023-05-05T21:23:49.487Z,10.34
2023-05-05T21:26:15.857Z,10.31
2023-05-05T21:28:42.205Z,10.34
2023-05-05T21:33:37.798Z,10.34
2023-05-05T21:36:04.349Z,10.34
2023-05-05T21:38:30.708Z,10.34
2023-05-05T21:40:57.379Z,10.34
2023-05-05T21:43:23.748Z,10.34
2023-05-05T21:45:50.354Z,10.33
2023-05-05T21:48:16.747Z,10.33
2023-05-05T21:50:43.107Z,10.31
2023-05-05T21:53:09.460Z,10.36
2023-05-05T21:55:35.792Z,10.31
2023-05-05T21:58:02.150Z,10.34
2023-05-05T22:00:30.301Z,10.33
2023-05-05T22:02:56.746Z,10.31
2023-05-05T22:05:23.434Z,10.33
2023-05-05T22:07:49.820Z,10.30
2023-05-05T22:10:16.164Z,10.33
2023-05-05T22:12:42.748Z,10.33
2023-05-05T22:15:09.298Z,10.33
2023-05-05T22:17:36.065Z,10.34
2023-05-05T22:20:02.447Z,10.33
2023-05-05T22:22:28.791Z,10.33
2023-05-05T22:24:55.142Z,10.33
2023-05-05T22:27:21.714Z,10.34
2023-05-05T22:29:48.053Z,10.31
2023-05-05T22:32:14.624Z,10.34
2023-05-05T22:34:41.009Z,10.34
2023-05-05T22:37:07.587Z,10.31
2023-05-05T22:39:33.959Z,10.33
2023-05-05T22:42:00.303Z,10.30
2023-05-05T22:44:26.644Z,10.31
2023-05-05T22:46:53.034Z,10.29
2023-05-05T22:49:19.499Z,10.31
2023-05-05T22:51:45.897Z,10.30
2023-05-05T22:54:12.230Z,10.31
2023-05-05T22:56:38.610Z,10.31
2023-05-05T22:59:05.020Z,10.30
2023-05-05T23:01:31.433Z,10.31
2023-05-05T23:03:57.802Z,10.33
2023-05-05T23:06:24.156Z,10.34
2023-05-05T23:08:50.545Z,10.30
2023-05-05T23:11:17.154Z,10.33
2023-05-05T23:13:43.810Z,10.31
2023-05-05T23:16:10.192Z,10.30
2023-05-05T23:18:36.626Z,10.34
2023-05-05T23:21:03.219Z,10.31
2023-05-05T23:23:29.573Z,10.36
2023-05-05T23:25:55.907Z,10.29
2023-05-05T23:28:22.505Z,10.33
2023-05-05T23:30:48.865Z,10.33
2023-05-05T23:33:15.464Z,10.33
2023-05-05T23:35:41.878Z,10.31
2023-05-05T23:38:08.229Z,10.31
2023-05-05T23:40:34.595Z,10.30
2023-05-05T23:43:01.193Z,10.31
2023-05-05T23:45:27.561Z,10.31
2023-05-05T23:47:54.145Z,10.33
2023-05-05T23:50:20.508Z,10.30
2023-05-05T23:52:46.863Z,10.31
2023-05-05T23:55:13.204Z,10.33
2023-05-05T23:57:39.862Z,10.30
